createdAt,value
2018-05-13T00:00:44.526Z,8.50
2018-05-13T00:03:12.005Z,9.33
2018-05-13T00:05:39.509Z,9.03
2018-05-13T00:08:06.994Z,8.83
2018-05-13T00:10:34.464Z,9.57
2018-05-13T00:13:02.111Z,9.53
2018-05-13T00:15:32.205Z,9.10
2018-05-13T00:17:59.862Z,9.53
2018-05-13T00:20:27.366Z,9.50
2018-05-13T00:22:54.857Z,9.90
2018-05-13T00:25:22.715Z,9.47
2018-05-13T00:27:50.202Z,9.77
2018-05-13T00:30:17.672Z,10.80
2018-05-13T00:32:45.165Z,10.50
2018-05-13T00:35:12.652Z,10.60
2018-05-13T00:37:40.257Z,10.20
2018-05-13T00:40:07.735Z,9.90
2018-05-13T00:42:37.193Z,10.27
2018-05-13T00:45:04.682Z,9.23
2018-05-13T00:47:32.162Z,9.30
2018-05-13T00:49:59.645Z,10.73
2018-05-13T00:52:27.109Z,9.80
2018-05-13T00:54:55.234Z,11.07
2018-05-13T00:57:22.856Z,10.03
2018-05-13T00:59:50.895Z,10.50
2018-05-13T01:02:18.389Z,9.43
2018-05-13T01:04:45.901Z,10.07
2018-05-13T01:07:13.387Z,9.40
2018-05-13T01:09:41.007Z,9.80
2018-05-13T01:12:08.484Z,11.50
2018-05-13T01:14:35.960Z,10.60
2018-05-13T01:17:03.443Z,11.10
2018-05-13T01:19:30.938Z,11.00
2018-05-13T01:21:58.405Z,11.07
2018-05-13T01:24:25.906Z,11.43
2018-05-13T01:26:53.379Z,11.53
2018-05-13T01:29:20.897Z,11.77
2018-05-13T01:31:48.402Z,11.73
2018-05-13T01:34:15.881Z,11.53
2018-05-13T01:36:43.372Z,11.87
2018-05-13T01:39:10.848Z,10.97
2018-05-13T01:41:38.346Z,11.30
2018-05-13T01:44:05.840Z,10.93
2018-05-13T01:46:33.365Z,11.80
2018-05-13T01:49:00.893Z,11.57
2018-05-13T01:51:28.382Z,11.77
2018-05-13T01:53:55.836Z,12.07
2018-05-13T01:56:23.309Z,11.73
2018-05-13T01:58:50.788Z,12.17
2018-05-13T02:01:18.273Z,10.50
2018-05-13T02:03:45.757Z,11.63
2018-05-13T02:06:13.234Z,11.50
2018-05-13T02:08:40.747Z,11.90
2018-05-13T02:11:08.204Z,12.37
2018-05-13T02:13:35.706Z,11.83
2018-05-13T02:16:03.208Z,12.60
2018-05-13T02:18:30.694Z,11.50
2018-05-13T02:20:58.683Z,12.87
2018-05-13T02:23:26.189Z,11.33
2018-05-13T02:25:53.651Z,12.00
2018-05-13T02:28:21.123Z,11.87
2018-05-13T02:30:48.614Z,11.53
2018-05-13T02:33:16.089Z,11.53
2018-05-13T02:35:43.613Z,12.50
2018-05-13T02:38:11.093Z,13.27
2018-05-13T02:40:38.575Z,12.50
2018-05-13T02:43:06.031Z,12.73
2018-05-13T02:45:33.540Z,13.00
2018-05-13T02:48:01.000Z,13.60
2018-05-13T02:50:28.693Z,12.30
2018-05-13T02:52:56.280Z,12.80
2018-05-13T02:55:23.787Z,13.00
2018-05-13T02:57:51.269Z,13.37
2018-05-13T03:00:18.742Z,12.00
2018-05-13T03:02:46.246Z,13.23
2018-05-13T03:05:13.709Z,13.10
2018-05-13T03:07:41.233Z,13.97
2018-05-13T03:10:08.716Z,13.13
2018-05-13T03:12:36.253Z,13.47
2018-05-13T03:15:03.716Z,13.70
2018-05-13T03:17:31.264Z,13.70
2018-05-13T03:19:58.748Z,13.27
2018-05-13T03:22:26.219Z,14.50
2018-05-13T03:24:53.705Z,13.57
2018-05-13T03:27:21.167Z,12.67
2018-05-13T03:29:48.658Z,14.40
2018-05-13T03:32:16.504Z,12.93
2018-05-13T03:34:43.997Z,13.10
2018-05-13T03:37:11.482Z,12.50
2018-05-13T03:39:38.992Z,13.10
2018-05-13T03:42:06.466Z,12.80
2018-05-13T03:44:33.945Z,13.87
2018-05-13T03:47:01.441Z,13.60
2018-05-13T03:49:28.968Z,14.10
2018-05-13T03:51:56.472Z,13.77
2018-05-13T03:54:23.932Z,13.63
2018-05-13T03:56:51.446Z,14.37
2018-05-13T03:59:18.970Z,13.10
2018-05-13T04:01:46.448Z,14.40
2018-05-13T04:04:13.934Z,13.40
2018-05-13T04:06:41.418Z,14.40
2018-05-13T04:09:20.725Z,13.80
2018-05-13T04:12:00.186Z,14.20
2018-05-13T04:14:39.445Z,15.50
2018-05-13T04:17:06.934Z,13.90
2018-05-13T04:19:34.436Z,15.20
2018-05-13T04:22:01.930Z,14.50
2018-05-13T04:24:29.421Z,13.97
2018-05-13T04:26:56.904Z,14.40
2018-05-13T04:29:24.408Z,14.13
2018-05-13T04:31:51.955Z,14.67
2018-05-13T04:34:19.454Z,15.37
2018-05-13T04:36:46.957Z,13.50
2018-05-13T04:39:14.540Z,14.97
2018-05-13T04:41:42.012Z,14.10
2018-05-13T04:44:09.540Z,15.00
2018-05-13T04:46:37.030Z,15.43
2018-05-13T04:49:04.514Z,15.90
2018-05-13T04:51:32.020Z,14.93
2018-05-13T04:53:59.532Z,15.10
2018-05-13T04:56:27.783Z,15.47
2018-05-13T04:58:55.263Z,15.57
2018-05-13T05:01:22.779Z,13.80
2018-05-13T05:03:50.266Z,16.00
2018-05-13T05:06:17.740Z,14.90
2018-05-13T05:08:45.393Z,15.93
2018-05-13T05:11:12.883Z,15.77
2018-05-13T05:13:40.409Z,14.57
2018-05-13T05:16:07.960Z,17.00
2018-05-13T05:18:35.588Z,16.40
2018-05-13T05:21:03.062Z,16.50
2018-05-13T05:23:30.557Z,15.80
2018-05-13T05:25:58.049Z,16.70
2018-05-13T05:28:25.575Z,16.87
2018-05-13T05:30:53.179Z,15.83
2018-05-13T05:33:20.665Z,16.20
2018-05-13T05:35:48.336Z,15.47
2018-05-13T05:38:15.846Z,15.90
2018-05-13T05:40:43.326Z,16.70
2018-05-13T05:43:10.818Z,16.40
2018-05-13T05:45:38.324Z,16.30
2018-05-13T05:48:05.815Z,16.03
2018-05-13T05:50:33.300Z,16.20
2018-05-13T05:53:00.826Z,16.83
2018-05-13T05:55:28.342Z,16.60
2018-05-13T05:57:55.829Z,15.70
2018-05-13T06:00:23.527Z,15.73
2018-05-13T06:02:51.123Z,15.93
2018-05-13T06:05:18.594Z,16.60
2018-05-13T06:07:46.083Z,16.13
2018-05-13T06:10:13.552Z,16.80
2018-05-13T06:12:41.056Z,16.90
2018-05-13T06:15:08.524Z,17.60
2018-05-13T06:17:36.002Z,16.47
2018-05-13T06:20:03.515Z,14.77
2018-05-13T06:22:31.014Z,15.60
2018-05-13T06:24:59.371Z,14.70
2018-05-13T06:27:26.864Z,14.80
2018-05-13T06:29:54.376Z,15.63
2018-05-13T06:32:21.852Z,14.50
2018-05-13T06:34:49.366Z,15.40
2018-05-13T06:37:16.908Z,14.37
2018-05-13T06:39:44.459Z,13.97
2018-05-13T06:42:11.908Z,13.63
2018-05-13T06:44:39.394Z,15.10
2018-05-13T06:47:06.924Z,15.30
2018-05-13T06:49:34.401Z,14.90
2018-05-13T06:52:01.899Z,14.10
2018-05-13T06:54:29.386Z,15.00
2018-05-13T06:56:56.872Z,13.33
2018-05-13T06:59:24.438Z,14.73
2018-05-13T07:01:51.965Z,13.90
2018-05-13T07:04:19.613Z,13.07
2018-05-13T07:06:47.084Z,12.00
2018-05-13T07:09:14.586Z,9.90
2018-05-13T07:11:42.077Z,9.40
2018-05-13T07:14:09.575Z,9.53
2018-05-13T07:16:37.060Z,9.13
2018-05-13T07:19:04.571Z,9.10
2018-05-13T07:21:32.057Z,8.80
2018-05-13T07:23:59.562Z,9.33
2018-05-13T07:26:27.038Z,8.23
2018-05-13T07:28:54.509Z,7.87
2018-05-13T07:31:22.020Z,8.57
2018-05-13T07:33:49.506Z,8.10
2018-05-13T07:36:17.060Z,9.20
2018-05-13T07:38:44.537Z,8.63
2018-05-13T07:41:12.033Z,7.23
2018-05-13T07:43:39.498Z,7.50
2018-05-13T07:46:07.000Z,7.80
2018-05-13T07:48:34.480Z,7.90
2018-05-13T07:51:02.000Z,8.73
2018-05-13T07:53:29.469Z,7.70
2018-05-13T07:55:56.949Z,7.53
2018-05-13T07:58:24.404Z,7.53
2018-05-13T08:00:51.905Z,7.20
2018-05-13T08:03:19.410Z,6.73
2018-05-13T08:05:46.875Z,6.70
2018-05-13T08:08:14.357Z,7.10
2018-05-13T08:10:41.840Z,7.00
2018-05-13T08:13:09.337Z,7.13
2018-05-13T08:15:36.803Z,6.70
2018-05-13T08:18:04.301Z,6.50
2018-05-13T08:20:31.800Z,6.20
2018-05-13T08:22:59.296Z,5.80
2018-05-13T08:25:26.771Z,6.13
2018-05-13T08:27:54.321Z,5.93
2018-05-13T08:30:21.738Z,5.87
2018-05-13T08:32:49.238Z,5.97
2018-05-13T08:35:16.733Z,6.00
2018-05-13T08:37:44.191Z,5.13
2018-05-13T08:40:11.712Z,5.57
2018-05-13T08:42:39.176Z,5.83
2018-05-13T08:45:06.663Z,5.83
2018-05-13T08:47:34.147Z,6.20
2018-05-13T08:50:01.631Z,5.70
2018-05-13T08:52:29.129Z,6.07
2018-05-13T08:54:56.623Z,6.10
2018-05-13T08:57:24.121Z,6.43
2018-05-13T08:59:51.578Z,6.20
2018-05-13T09:02:19.066Z,6.73
2018-05-13T09:04:46.575Z,6.30
2018-05-13T09:07:14.085Z,6.00
2018-05-13T09:09:41.569Z,6.47
2018-05-13T09:12:09.063Z,5.83
2018-05-13T09:14:36.592Z,5.77
2018-05-13T09:17:04.074Z,6.50
2018-05-13T09:19:31.571Z,6.47
2018-05-13T09:21:59.061Z,5.80
2018-05-13T09:24:26.566Z,5.83
2018-05-13T09:26:54.023Z,5.47
2018-05-13T09:29:21.537Z,5.87
2018-05-13T09:31:49.016Z,5.43
2018-05-13T09:34:16.723Z,4.80
2018-05-13T09:36:44.191Z,5.30
2018-05-13T09:39:11.690Z,5.60
2018-05-13T09:41:39.159Z,5.87
2018-05-13T09:44:06.645Z,6.80
2018-05-13T09:46:34.126Z,5.00
2018-05-13T09:49:01.608Z,5.80
2018-05-13T09:51:29.095Z,5.03
2018-05-13T09:53:56.549Z,5.27
2018-05-13T09:56:24.047Z,5.07
2018-05-13T09:58:51.527Z,5.77
2018-05-13T10:01:19.021Z,5.70
2018-05-13T10:03:46.512Z,5.10
2018-05-13T10:06:13.967Z,5.27
2018-05-13T10:08:41.475Z,5.47
2018-05-13T10:11:08.942Z,4.00
2018-05-13T10:13:36.437Z,4.10
2018-05-13T10:16:03.909Z,4.07
2018-05-13T10:18:31.410Z,4.20
2018-05-13T10:20:58.920Z,4.10
2018-05-13T10:23:26.529Z,3.83
2018-05-13T10:25:54.309Z,3.70
2018-05-13T10:28:21.789Z,3.63
2018-05-13T10:30:49.265Z,3.97
2018-05-13T10:33:16.759Z,3.60
2018-05-13T10:35:44.244Z,3.83
2018-05-13T10:38:11.730Z,3.20
2018-05-13T10:40:39.221Z,3.50
2018-05-13T10:43:06.694Z,3.50
2018-05-13T10:45:34.193Z,3.30
2018-05-13T10:48:01.675Z,5.30
2018-05-13T10:50:29.151Z,3.07
2018-05-13T10:52:56.649Z,3.20
2018-05-13T10:55:24.099Z,3.97
2018-05-13T10:57:51.622Z,2.90
2018-05-13T11:00:19.064Z,3.07
2018-05-13T11:02:46.562Z,2.90
2018-05-13T11:05:14.039Z,2.70
2018-05-13T11:07:41.527Z,2.90
2018-05-13T11:10:09.087Z,2.33
2018-05-13T11:12:36.526Z,2.70
2018-05-13T11:15:04.017Z,3.20
2018-05-13T11:17:31.513Z,3.17
2018-05-13T11:19:58.999Z,3.23
2018-05-13T11:22:26.477Z,3.13
2018-05-13T11:24:53.979Z,3.00
2018-05-13T11:27:21.446Z,3.00
2018-05-13T11:29:48.948Z,4.30
2018-05-13T11:32:16.422Z,4.40
2018-05-13T11:34:43.931Z,3.13
2018-05-13T11:37:11.416Z,3.77
2018-05-13T11:39:38.909Z,3.33
2018-05-13T11:42:06.381Z,3.40
2018-05-13T11:44:33.896Z,3.30
2018-05-13T11:47:01.354Z,3.40
2018-05-13T11:49:28.842Z,3.03
2018-05-13T11:51:56.347Z,2.50
2018-05-13T11:54:23.810Z,2.50
2018-05-13T11:56:51.462Z,3.03
2018-05-13T11:59:18.915Z,2.83
2018-05-13T12:01:47.521Z,3.07
2018-05-13T12:04:15.001Z,2.80
2018-05-13T12:06:42.480Z,2.70
2018-05-13T12:09:09.942Z,3.00
2018-05-13T12:11:37.449Z,2.90
2018-05-13T12:14:04.916Z,3.33
2018-05-13T12:16:32.367Z,2.87
2018-05-13T12:18:59.868Z,2.97
2018-05-13T12:21:27.342Z,2.43
2018-05-13T12:23:54.838Z,2.50
2018-05-13T12:26:22.310Z,2.60
2018-05-13T12:28:49.828Z,2.83
2018-05-13T12:31:17.298Z,3.00
2018-05-13T12:33:44.795Z,3.07
2018-05-13T12:36:12.260Z,2.67
2018-05-13T12:38:39.758Z,2.87
2018-05-13T12:41:07.226Z,3.10
2018-05-13T12:43:34.759Z,3.90
2018-05-13T12:46:02.263Z,4.50
2018-05-13T12:48:29.731Z,4.13
2018-05-13T12:50:57.237Z,4.40
2018-05-13T12:53:24.708Z,6.13
2018-05-13T12:55:52.338Z,6.40
2018-05-13T12:58:19.892Z,5.30
2018-05-13T13:00:47.326Z,4.97
2018-05-13T13:03:14.805Z,5.47
2018-05-13T13:05:42.350Z,6.20
2018-05-13T13:08:09.856Z,4.90
2018-05-13T13:10:37.360Z,5.80
2018-05-13T13:13:04.917Z,4.33
2018-05-13T13:15:32.345Z,5.07
2018-05-13T13:17:59.846Z,4.57
2018-05-13T13:20:27.337Z,4.67
2018-05-13T13:22:54.818Z,5.20
2018-05-13T13:25:22.290Z,4.27
2018-05-13T13:27:49.811Z,4.40
2018-05-13T13:30:17.806Z,5.00
2018-05-13T13:32:45.259Z,4.90
2018-05-13T13:35:12.724Z,4.60
2018-05-13T13:37:40.231Z,4.93
2018-05-13T13:40:07.719Z,4.13
2018-05-13T13:42:35.192Z,5.70
2018-05-13T13:45:02.922Z,5.73
2018-05-13T13:47:30.391Z,4.17
2018-05-13T13:49:57.908Z,4.23
2018-05-13T13:52:25.400Z,3.93
2018-05-13T13:54:52.880Z,4.20
2018-05-13T13:57:20.338Z,4.93
2018-05-13T13:59:47.835Z,3.90
2018-05-13T14:02:15.360Z,3.40
2018-05-13T14:04:42.858Z,4.10
2018-05-13T14:07:10.320Z,4.13
2018-05-13T14:09:37.786Z,3.40
2018-05-13T14:12:05.285Z,4.57
2018-05-13T14:14:32.764Z,7.10
2018-05-13T14:17:00.265Z,6.30
2018-05-13T14:19:27.733Z,4.63
2018-05-13T14:21:55.300Z,5.50
2018-05-13T14:24:22.796Z,4.87
2018-05-13T14:26:50.322Z,3.57
2018-05-13T14:29:17.849Z,4.10
2018-05-13T14:31:45.281Z,4.37
2018-05-13T14:34:12.757Z,4.10
2018-05-13T14:36:40.254Z,3.50
2018-05-13T14:39:12.125Z,5.10
2018-05-13T14:41:35.641Z,3.73
2018-05-13T14:44:03.567Z,3.47
2018-05-13T14:46:31.790Z,3.87
2018-05-13T14:48:59.301Z,3.63
2018-05-13T14:51:27.065Z,3.50
2018-05-13T14:53:55.076Z,3.97
2018-05-13T14:56:22.875Z,2.70
2018-05-13T14:58:50.382Z,3.60
2018-05-13T15:01:17.906Z,4.50
2018-05-13T15:03:45.885Z,3.90
2018-05-13T15:06:13.717Z,3.03
2018-05-13T15:08:41.414Z,3.37
2018-05-13T15:11:08.981Z,3.10
2018-05-13T15:13:36.845Z,3.57
2018-05-13T15:16:04.508Z,2.67
2018-05-13T15:18:32.362Z,2.60
2018-05-13T15:20:59.949Z,3.73
2018-05-13T15:23:27.460Z,5.07
2018-05-13T15:25:55.217Z,3.40
2018-05-13T15:28:22.738Z,3.17
2018-05-13T15:30:50.259Z,3.10
2018-05-13T15:33:17.934Z,2.63
2018-05-13T15:35:45.457Z,4.17
2018-05-13T15:38:13.271Z,2.50
2018-05-13T15:40:40.747Z,3.13
2018-05-13T15:43:08.472Z,2.80
2018-05-13T15:45:35.911Z,2.90
2018-05-13T15:48:03.836Z,3.40
2018-05-13T15:50:31.321Z,2.60
2018-05-13T15:52:59.420Z,2.90
2018-05-13T15:55:27.198Z,3.10
2018-05-13T15:57:55.355Z,4.60
2018-05-13T16:00:22.875Z,7.00
2018-05-13T16:02:50.806Z,23.10
2018-05-13T16:05:18.855Z,7.37
2018-05-13T16:07:46.783Z,4.93
2018-05-13T16:10:14.254Z,9.17
2018-05-13T16:12:41.729Z,10.13
2018-05-13T16:15:09.248Z,7.43
2018-05-13T16:17:37.128Z,14.27
2018-05-13T16:20:04.645Z,8.87
2018-05-13T16:22:32.169Z,5.70
2018-05-13T16:24:59.675Z,8.43
2018-05-13T16:27:27.172Z,4.77
2018-05-13T16:29:54.812Z,5.10
2018-05-13T16:32:22.295Z,5.03
2018-05-13T16:34:50.075Z,5.00
2018-05-13T16:37:17.578Z,5.00
2018-05-13T16:39:45.062Z,4.33
2018-05-13T16:42:13.080Z,4.57
2018-05-13T16:44:41.178Z,5.07
2018-05-13T16:47:08.893Z,4.63
2018-05-13T16:49:36.400Z,4.83
2018-05-13T16:52:03.973Z,5.43
2018-05-13T16:54:31.455Z,5.00
2018-05-13T16:56:58.953Z,5.43
2018-05-13T16:59:26.434Z,4.60
2018-05-13T17:01:53.909Z,5.10
2018-05-13T17:04:21.410Z,4.93
2018-05-13T17:06:48.910Z,4.90
2018-05-13T17:09:16.542Z,4.77
2018-05-13T17:11:43.917Z,5.13
2018-05-13T17:14:11.373Z,5.70
2018-05-13T17:16:38.885Z,5.27
2018-05-13T17:19:06.352Z,5.30
2018-05-13T17:21:33.849Z,5.80
2018-05-13T17:24:01.329Z,4.90
2018-05-13T17:26:28.783Z,5.50
2018-05-13T17:28:56.291Z,5.20
2018-05-13T17:31:23.779Z,5.67
2018-05-13T17:33:51.287Z,5.07
2018-05-13T17:36:18.785Z,5.53
2018-05-13T17:38:46.303Z,6.00
2018-05-13T17:41:13.812Z,5.57
2018-05-13T17:43:41.526Z,5.30
2018-05-13T17:46:09.024Z,5.97
2018-05-13T17:48:36.521Z,5.50
2018-05-13T17:51:04.166Z,5.37
2018-05-13T17:53:31.668Z,5.20
2018-05-13T17:55:59.383Z,5.73
2018-05-13T17:58:26.883Z,5.80
2018-05-13T18:00:54.461Z,5.63
2018-05-13T18:03:22.077Z,6.07
2018-05-13T18:05:49.344Z,5.77
2018-05-13T18:08:16.843Z,5.97
2018-05-13T18:10:44.330Z,5.97
2018-05-13T18:13:11.856Z,4.27
2018-05-13T18:15:39.328Z,3.70
2018-05-13T18:18:06.837Z,3.20
2018-05-13T18:20:34.336Z,3.00
2018-05-13T18:23:01.859Z,3.90
2018-05-13T18:25:29.345Z,4.27
2018-05-13T18:27:56.865Z,5.20
2018-05-13T18:30:24.342Z,5.27
2018-05-13T18:32:51.844Z,4.50
2018-05-13T18:35:19.354Z,4.47
2018-05-13T18:37:46.844Z,3.57
2018-05-13T18:40:14.380Z,3.57
2018-05-13T18:42:41.932Z,3.93
2018-05-13T18:45:09.469Z,4.20
2018-05-13T18:47:37.014Z,4.10
2018-05-13T18:50:04.555Z,4.67
2018-05-13T18:52:32.064Z,5.13
2018-05-13T18:54:59.652Z,5.00
2018-05-13T18:57:27.162Z,4.90
2018-05-13T18:59:54.704Z,4.90
2018-05-13T19:02:22.221Z,5.00
2018-05-13T19:04:49.692Z,5.00
2018-05-13T19:07:17.225Z,5.13
2018-05-13T19:09:44.708Z,5.40
2018-05-13T19:12:12.335Z,4.93
2018-05-13T19:14:39.891Z,5.80
2018-05-13T19:17:07.410Z,4.57
2018-05-13T19:19:36.053Z,5.23
2018-05-13T19:22:03.591Z,4.50
2018-05-13T19:24:31.102Z,5.33
2018-05-13T19:26:58.631Z,5.43
2018-05-13T19:29:26.153Z,5.40
2018-05-13T19:31:53.627Z,4.80
2018-05-13T19:34:21.186Z,4.67
2018-05-13T19:36:48.768Z,5.00
2018-05-13T19:39:16.286Z,4.30
2018-05-13T19:41:43.784Z,5.00
2018-05-13T19:44:11.289Z,4.70
2018-05-13T19:46:38.777Z,4.30
2018-05-13T19:49:06.311Z,4.77
2018-05-13T19:51:33.807Z,5.67
2018-05-13T19:54:01.303Z,4.80
2018-05-13T19:56:28.836Z,4.50
2018-05-13T19:58:56.313Z,4.80
2018-05-13T20:01:24.057Z,4.70
2018-05-13T20:03:51.618Z,5.23
2018-05-13T20:06:19.099Z,5.60
2018-05-13T20:08:46.667Z,4.87
2018-05-13T20:11:14.129Z,4.97
2018-05-13T20:13:41.701Z,4.47
2018-05-13T20:16:09.172Z,5.23
2018-05-13T20:18:36.705Z,5.20
2018-05-13T20:21:04.221Z,5.03
2018-05-13T20:23:31.720Z,4.80
2018-05-13T20:25:59.210Z,5.43
2018-05-13T20:28:26.721Z,5.10
2018-05-13T20:30:54.202Z,4.77
2018-05-13T20:33:21.699Z,4.87
2018-05-13T20:35:49.203Z,5.30
2018-05-13T20:38:16.710Z,5.03
2018-05-13T20:40:44.327Z,5.20
2018-05-13T20:43:11.800Z,5.60
2018-05-13T20:45:39.292Z,5.07
2018-05-13T20:48:06.766Z,5.00
2018-05-13T20:50:34.256Z,5.50
2018-05-13T20:53:01.743Z,5.20
2018-05-13T20:55:29.233Z,6.00
2018-05-13T20:57:56.813Z,5.70
2018-05-13T21:00:24.233Z,5.60
2018-05-13T21:02:51.711Z,4.80
2018-05-13T21:05:19.295Z,5.03
2018-05-13T21:07:46.723Z,4.90
2018-05-13T21:10:14.206Z,5.40
2018-05-13T21:12:41.726Z,5.33
2018-05-13T21:15:09.210Z,4.90
2018-05-13T21:17:36.709Z,5.20
2018-05-13T21:20:04.184Z,5.30
2018-05-13T21:22:31.655Z,6.03
2018-05-13T21:24:59.143Z,5.20
2018-05-13T21:27:26.615Z,5.60
2018-05-13T21:29:54.086Z,5.00
2018-05-13T21:32:21.541Z,5.00
2018-05-13T21:34:49.017Z,4.90
2018-05-13T21:37:16.492Z,4.93
2018-05-13T21:39:44.022Z,4.97
2018-05-13T21:42:11.476Z,4.63
2018-05-13T21:44:38.970Z,5.13
2018-05-13T21:47:06.476Z,5.10
2018-05-13T21:49:33.920Z,5.70
2018-05-13T21:52:01.415Z,5.37
2018-05-13T21:54:29.064Z,5.23
2018-05-13T21:56:56.486Z,5.73
2018-05-13T21:59:23.960Z,5.90
2018-05-13T22:01:51.510Z,6.43
2018-05-13T22:04:18.975Z,6.10
2018-05-13T22:06:46.512Z,6.00
2018-05-13T22:09:13.987Z,5.90
2018-05-13T22:11:41.535Z,6.23
2018-05-13T22:14:09.055Z,6.70
2018-05-13T22:16:36.508Z,6.53
2018-05-13T22:19:04.023Z,7.43
2018-05-13T22:21:31.480Z,6.30
2018-05-13T22:23:58.974Z,6.67
2018-05-13T22:26:26.449Z,7.00
2018-05-13T22:28:53.954Z,7.40
2018-05-13T22:31:21.445Z,6.90
2018-05-13T22:33:48.945Z,7.53
2018-05-13T22:36:16.418Z,7.20
2018-05-13T22:38:43.885Z,7.33
2018-05-13T22:41:11.378Z,7.90
2018-05-13T22:43:38.843Z,8.50
2018-05-13T22:46:06.339Z,8.60
2018-05-13T22:48:33.829Z,8.17
2018-05-13T22:51:01.354Z,9.50
2018-05-13T22:53:28.853Z,9.50
2018-05-13T22:55:56.346Z,9.00
2018-05-13T22:58:23.872Z,9.60
2018-05-13T23:00:51.444Z,10.50
2018-05-13T23:03:18.969Z,10.57
2018-05-13T23:05:46.447Z,10.90
2018-05-13T23:08:13.942Z,10.47
2018-05-13T23:10:41.468Z,11.47
2018-05-13T23:13:08.977Z,10.57
2018-05-13T23:15:36.480Z,11.03
2018-05-13T23:18:04.021Z,12.40
2018-05-13T23:20:31.556Z,11.10
2018-05-13T23:22:59.593Z,9.93
2018-05-13T23:25:27.287Z,11.40
2018-05-13T23:27:54.824Z,10.70
2018-05-13T23:30:22.335Z,10.50
2018-05-13T23:32:49.862Z,11.00
2018-05-13T23:35:17.341Z,10.33
2018-05-13T23:37:44.820Z,11.17
2018-05-13T23:40:12.317Z,10.30
2018-05-13T23:42:39.842Z,11.00
2018-05-13T23:45:07.349Z,11.23
2018-05-13T23:47:34.834Z,11.60
2018-05-13T23:50:02.349Z,11.10
2018-05-13T23:52:29.849Z,10.97
2018-05-13T23:54:57.345Z,10.87
2018-05-13T23:57:24.835Z,10.97
2018-05-13T23:59:52.337Z,10.80
